sensor_id;sensor_type;location;lat;lon;timestamp;pressure;altitude;pressure_sealevel;temperature;humidity
76660;BME280;65579;45.534;6.212;2023-03-19T00:00:23;98182.76;;;10.85;40.88
76660;BME280;65579;45.534;6.212;2023-03-19T00:02:48;98183.04;;;11.22;40.00
76660;BME280;65579;45.534;6.212;2023-03-19T00:05:14;98184.46;;;11.06;40.78
76660;BME280;65579;45.534;6.212;2023-03-19T00:07:38;98191.15;;;11.03;40.94
76660;BME280;65579;45.534;6.212;2023-03-19T00:10:04;98196.48;;;11.29;42.37
76660;BME280;65579;45.534;6.212;2023-03-19T00:12:29;98198.51;;;10.94;42.37
76660;BME280;65579;45.534;6.212;2023-03-19T00:14:54;98198.53;;;11.06;41.36
76660;BME280;65579;45.534;6.212;2023-03-19T00:17:20;98200.11;;;10.77;42.13
76660;BME280;65579;45.534;6.212;2023-03-19T00:19:45;98200.84;;;10.67;42.61
76660;BME280;65579;45.534;6.212;2023-03-19T00:22:11;98203.37;;;10.39;42.84
76660;BME280;65579;45.534;6.212;2023-03-19T00:24:36;98205.76;;;10.85;42.36
76660;BME280;65579;45.534;6.212;2023-03-19T00:27:02;98205.37;;;10.99;41.50
76660;BME280;65579;45.534;6.212;2023-03-19T00:29:27;98209.46;;;10.65;41.52
76660;BME280;65579;45.534;6.212;2023-03-19T00:31:52;98213.69;;;10.57;42.57
76660;BME280;65579;45.534;6.212;2023-03-19T00:34:17;98214.34;;;11.06;41.90
76660;BME280;65579;45.534;6.212;2023-03-19T00:36:43;98215.49;;;10.83;42.09
76660;BME280;65579;45.534;6.212;2023-03-19T00:39:08;98217.91;;;10.54;42.21
76660;BME280;65579;45.534;6.212;2023-03-19T00:41:33;98221.18;;;10.71;42.40
76660;BME280;65579;45.534;6.212;2023-03-19T00:43:59;98218.31;;;10.75;42.67
76660;BME280;65579;45.534;6.212;2023-03-19T00:46:25;98215.19;;;11.36;41.83
76660;BME280;65579;45.534;6.212;2023-03-19T00:48:50;98213.56;;;11.07;40.65
76660;BME280;65579;45.534;6.212;2023-03-19T00:51:16;98216.50;;;11.10;41.68
76660;BME280;65579;45.534;6.212;2023-03-19T00:53:43;98218.70;;;10.68;42.18
76660;BME280;65579;45.534;6.212;2023-03-19T00:56:08;98217.95;;;10.51;42.38
76660;BME280;65579;45.534;6.212;2023-03-19T00:58:34;98221.63;;;10.34;43.45
76660;BME280;65579;45.534;6.212;2023-03-19T01:00:58;98227.92;;;9.89;44.34
76660;BME280;65579;45.534;6.212;2023-03-19T01:03:24;98221.66;;;10.20;43.40
76660;BME280;65579;45.534;6.212;2023-03-19T01:05:49;98225.76;;;10.06;43.70
76660;BME280;65579;45.534;6.212;2023-03-19T01:08:14;98221.34;;;10.40;43.10
76660;BME280;65579;45.534;6.212;2023-03-19T01:10:40;98222.13;;;10.65;43.24
76660;BME280;65579;45.534;6.212;2023-03-19T01:13:06;98227.17;;;9.96;44.29
76660;BME280;65579;45.534;6.212;2023-03-19T01:15:34;98230.71;;;9.82;44.93
76660;BME280;65579;45.534;6.212;2023-03-19T01:17:56;98230.65;;;9.78;45.23
76660;BME280;65579;45.534;6.212;2023-03-19T01:20:21;98227.22;;;9.91;44.22
76660;BME280;65579;45.534;6.212;2023-03-19T01:22:47;98222.32;;;10.43;42.75
76660;BME280;65579;45.534;6.212;2023-03-19T01:25:13;98220.96;;;9.94;43.86
76660;BME280;65579;45.534;6.212;2023-03-19T01:27:38;98218.17;;;9.73;44.48
76660;BME280;65579;45.534;6.212;2023-03-19T01:30:03;98212.14;;;10.06;43.86
76660;BME280;65579;45.534;6.212;2023-03-19T01:32:29;98218.39;;;9.50;45.10
76660;BME280;65579;45.534;6.212;2023-03-19T01:34:54;98216.03;;;10.43;43.14
76660;BME280;65579;45.534;6.212;2023-03-19T01:37:19;98222.49;;;9.61;44.52
76660;BME280;65579;45.534;6.212;2023-03-19T01:39:45;98223.66;;;9.86;44.84
76660;BME280;65579;45.534;6.212;2023-03-19T01:42:14;98221.87;;;9.98;44.03
76660;BME280;65579;45.534;6.212;2023-03-19T01:44:36;98220.42;;;9.52;44.92
76660;BME280;65579;45.534;6.212;2023-03-19T01:47:03;98221.99;;;9.41;45.32
76660;BME280;65579;45.534;6.212;2023-03-19T01:49:27;98220.81;;;9.58;44.57
76660;BME280;65579;45.534;6.212;2023-03-19T01:51:52;98218.63;;;9.96;44.67
76660;BME280;65579;45.534;6.212;2023-03-19T01:54:19;98217.36;;;9.77;44.44
76660;BME280;65579;45.534;6.212;2023-03-19T01:56:44;98216.16;;;10.19;43.46
76660;BME280;65579;45.534;6.212;2023-03-19T01:59:11;98216.68;;;9.47;44.20
76660;BME280;65579;45.534;6.212;2023-03-19T02:01:35;98219.51;;;10.14;43.54
76660;BME280;65579;45.534;6.212;2023-03-19T02:03:59;98217.56;;;10.08;43.48
76660;BME280;65579;45.534;6.212;2023-03-19T02:06:23;98214.38;;;10.13;43.24
76660;BME280;65579;45.534;6.212;2023-03-19T02:08:49;98212.69;;;10.03;43.80
76660;BME280;65579;45.534;6.212;2023-03-19T02:11:14;98209.28;;;10.21;42.95
76660;BME280;65579;45.534;6.212;2023-03-19T02:13:40;98210.60;;;9.78;43.74
76660;BME280;65579;45.534;6.212;2023-03-19T02:16:06;98209.26;;;9.50;44.16
76660;BME280;65579;45.534;6.212;2023-03-19T02:18:31;98209.78;;;10.15;44.02
76660;BME280;65579;45.534;6.212;2023-03-19T02:21:00;98213.73;;;10.10;43.86
76660;BME280;65579;45.534;6.212;2023-03-19T02:23:29;98214.32;;;9.57;44.39
76660;BME280;65579;45.534;6.212;2023-03-19T02:25:58;98217.03;;;10.06;43.84
76660;BME280;65579;45.534;6.212;2023-03-19T02:28:13;98218.65;;;9.10;45.95
76660;BME280;65579;45.534;6.212;2023-03-19T02:30:37;98220.53;;;8.99;46.07
76660;BME280;65579;45.534;6.212;2023-03-19T02:33:02;98220.81;;;9.38;45.28
76660;BME280;65579;45.534;6.212;2023-03-19T02:35:29;98217.91;;;9.52;45.04
76660;BME280;65579;45.534;6.212;2023-03-19T02:37:53;98217.85;;;9.77;43.95
76660;BME280;65579;45.534;6.212;2023-03-19T02:40:22;98218.23;;;9.69;44.25
76660;BME280;65579;45.534;6.212;2023-03-19T02:42:45;98219.57;;;9.32;45.16
76660;BME280;65579;45.534;6.212;2023-03-19T02:45:11;98215.98;;;9.95;44.20
76660;BME280;65579;45.534;6.212;2023-03-19T02:47:36;98219.54;;;8.76;45.95
76660;BME280;65579;45.534;6.212;2023-03-19T02:50:02;98220.11;;;9.37;45.34
76660;BME280;65579;45.534;6.212;2023-03-19T02:52:27;98220.16;;;9.84;44.16
76660;BME280;65579;45.534;6.212;2023-03-19T02:54:52;98223.18;;;8.99;46.29
76660;BME280;65579;45.534;6.212;2023-03-19T02:57:17;98223.68;;;8.83;46.39
76660;BME280;65579;45.534;6.212;2023-03-19T02:59:43;98224.72;;;8.78;46.08
76660;BME280;65579;45.534;6.212;2023-03-19T03:02:08;98222.11;;;9.36;44.74
76660;BME280;65579;45.534;6.212;2023-03-19T03:04:34;98222.85;;;8.68;46.32
76660;BME280;65579;45.534;6.212;2023-03-19T03:06:59;98221.41;;;9.49;44.14
76660;BME280;65579;45.534;6.212;2023-03-19T03:09:25;98227.68;;;9.42;46.00
76660;BME280;65579;45.534;6.212;2023-03-19T03:11:50;98228.84;;;8.69;46.05
76660;BME280;65579;45.534;6.212;2023-03-19T03:14:15;98231.86;;;9.27;45.73
76660;BME280;65579;45.534;6.212;2023-03-19T03:16:41;98232.53;;;8.85;47.74
76660;BME280;65579;45.534;6.212;2023-03-19T03:19:06;98234.05;;;8.54;47.12
76660;BME280;65579;45.534;6.212;2023-03-19T03:21:31;98233.23;;;8.89;47.38
76660;BME280;65579;45.534;6.212;2023-03-19T03:23:56;98235.22;;;8.93;46.36
76660;BME280;65579;45.534;6.212;2023-03-19T03:26:22;98238.46;;;8.90;46.14
76660;BME280;65579;45.534;6.212;2023-03-19T03:28:47;98241.46;;;8.78;46.06
76660;BME280;65579;45.534;6.212;2023-03-19T03:31:12;98243.73;;;9.49;44.09
76660;BME280;65579;45.534;6.212;2023-03-19T03:33:38;98241.39;;;9.96;43.18
76660;BME280;65579;45.534;6.212;2023-03-19T03:36:03;98240.32;;;9.74;43.22
76660;BME280;65579;45.534;6.212;2023-03-19T03:38:29;98238.68;;;9.59;42.95
76660;BME280;65579;45.534;6.212;2023-03-19T03:40:54;98239.26;;;9.75;43.19
76660;BME280;65579;45.534;6.212;2023-03-19T03:43:20;98237.85;;;9.35;44.23
76660;BME280;65579;45.534;6.212;2023-03-19T03:45:44;98239.65;;;9.63;44.12
76660;BME280;65579;45.534;6.212;2023-03-19T03:48:10;98239.92;;;9.68;43.29
76660;BME280;65579;45.534;6.212;2023-03-19T03:50:35;98236.99;;;8.96;44.85
76660;BME280;65579;45.534;6.212;2023-03-19T03:53:00;98234.57;;;8.75;45.60
76660;BME280;65579;45.534;6.212;2023-03-19T03:55:25;98233.30;;;9.30;44.70
76660;BME280;65579;45.534;6.212;2023-03-19T03:57:50;98231.88;;;9.73;44.29
76660;BME280;65579;45.534;6.212;2023-03-19T04:00:16;98233.03;;;9.38;44.80
76660;BME280;65579;45.534;6.212;2023-03-19T04:02:41;98236.18;;;9.21;44.76
76660;BME280;65579;45.534;6.212;2023-03-19T04:05:06;98240.48;;;9.26;44.80
76660;BME280;65579;45.534;6.212;2023-03-19T04:07:31;98246.40;;;8.96;45.32
76660;BME280;65579;45.534;6.212;2023-03-19T04:09:57;98247.24;;;9.06;45.57
76660;BME280;65579;45.534;6.212;2023-03-19T04:12:23;98245.51;;;9.22;45.03
76660;BME280;65579;45.534;6.212;2023-03-19T04:14:47;98240.41;;;9.52;44.48
76660;BME280;65579;45.534;6.212;2023-03-19T04:17:12;98239.57;;;9.19;44.43
76660;BME280;65579;45.534;6.212;2023-03-19T04:19:38;98236.42;;;9.60;43.80
76660;BME280;65579;45.534;6.212;2023-03-19T04:22:04;98242.07;;;8.93;44.91
76660;BME280;65579;45.534;6.212;2023-03-19T04:24:29;98241.63;;;9.42;44.01
76660;BME280;65579;45.534;6.212;2023-03-19T04:26:54;98244.94;;;9.03;44.07
76660;BME280;65579;45.534;6.212;2023-03-19T04:29:19;98242.90;;;8.66;45.61
76660;BME280;65579;45.534;6.212;2023-03-19T04:31:44;98241.72;;;8.69;46.09
76660;BME280;65579;45.534;6.212;2023-03-19T04:34:10;98243.59;;;8.69;46.17
76660;BME280;65579;45.534;6.212;2023-03-19T04:36:35;98241.71;;;8.22;47.09
76660;BME280;65579;45.534;6.212;2023-03-19T04:39:00;98244.60;;;8.75;46.03
76660;BME280;65579;45.534;6.212;2023-03-19T04:41:26;98247.64;;;8.60;47.07
76660;BME280;65579;45.534;6.212;2023-03-19T04:43:52;98249.33;;;8.52;46.66
76660;BME280;65579;45.534;6.212;2023-03-19T04:46:17;98251.19;;;8.02;46.90
76660;BME280;65579;45.534;6.212;2023-03-19T04:48:42;98255.02;;;8.84;45.00
76660;BME280;65579;45.534;6.212;2023-03-19T04:51:08;98257.03;;;8.55;45.90
76660;BME280;65579;45.534;6.212;2023-03-19T04:53:34;98257.30;;;8.76;45.47
76660;BME280;65579;45.534;6.212;2023-03-19T04:55:59;98256.15;;;8.47;45.74
76660;BME280;65579;45.534;6.212;2023-03-19T04:58:24;98263.14;;;9.27;44.06
76660;BME280;65579;45.534;6.212;2023-03-19T05:00:49;98263.87;;;9.25;44.03
76660;BME280;65579;45.534;6.212;2023-03-19T05:03:15;98267.20;;;8.67;45.24
76660;BME280;65579;45.534;6.212;2023-03-19T05:05:40;98269.18;;;8.24;45.41
76660;BME280;65579;45.534;6.212;2023-03-19T05:08:06;98275.83;;;9.14;44.01
76660;BME280;65579;45.534;6.212;2023-03-19T05:10:31;98275.97;;;9.36;44.21
76660;BME280;65579;45.534;6.212;2023-03-19T05:12:56;98276.39;;;8.78;44.79
76660;BME280;65579;45.534;6.212;2023-03-19T05:15:22;98275.12;;;8.91;45.22
76660;BME280;65579;45.534;6.212;2023-03-19T05:17:47;98276.13;;;9.01;45.06
76660;BME280;65579;45.534;6.212;2023-03-19T05:20:12;98281.14;;;9.20;44.19
76660;BME280;65579;45.534;6.212;2023-03-19T05:22:38;98282.41;;;8.35;45.53
76660;BME280;65579;45.534;6.212;2023-03-19T05:25:04;98282.09;;;9.08;44.25
76660;BME280;65579;45.534;6.212;2023-03-19T05:27:29;98279.12;;;8.15;46.34
76660;BME280;65579;45.534;6.212;2023-03-19T05:29:54;98282.39;;;8.93;45.30
76660;BME280;65579;45.534;6.212;2023-03-19T05:32:19;98284.45;;;8.67;45.76
76660;BME280;65579;45.534;6.212;2023-03-19T05:34:45;98283.55;;;8.14;46.77
76660;BME280;65579;45.534;6.212;2023-03-19T05:37:10;98284.16;;;8.10;47.65
76660;BME280;65579;45.534;6.212;2023-03-19T05:39:35;98280.76;;;7.95;46.94
76660;BME280;65579;45.534;6.212;2023-03-19T05:42:00;98286.23;;;8.69;46.21
76660;BME280;65579;45.534;6.212;2023-03-19T05:44:26;98290.67;;;7.80;47.19
76660;BME280;65579;45.534;6.212;2023-03-19T05:46:51;98291.92;;;8.25;47.51
76660;BME280;65579;45.534;6.212;2023-03-19T05:49:17;98294.48;;;8.44;47.04
76660;BME280;65579;45.534;6.212;2023-03-19T05:51:42;98296.04;;;8.74;46.11
76660;BME280;65579;45.534;6.212;2023-03-19T05:54:07;98299.74;;;8.94;46.00
76660;BME280;65579;45.534;6.212;2023-03-19T05:56:32;98301.23;;;8.84;45.23
76660;BME280;65579;45.534;6.212;2023-03-19T05:58:58;98300.46;;;8.62;46.33
76660;BME280;65579;45.534;6.212;2023-03-19T06:01:23;98303.15;;;9.36;44.60
76660;BME280;65579;45.534;6.212;2023-03-19T06:03:49;98305.45;;;9.38;45.22
76660;BME280;65579;45.534;6.212;2023-03-19T06:06:14;98307.77;;;9.13;45.00
76660;BME280;65579;45.534;6.212;2023-03-19T06:08:39;98310.28;;;8.64;45.78
76660;BME280;65579;45.534;6.212;2023-03-19T06:11:04;98309.78;;;8.26;46.24
76660;BME280;65579;45.534;6.212;2023-03-19T06:13:30;98311.83;;;8.66;45.42
76660;BME280;65579;45.534;6.212;2023-03-19T06:15:55;98317.63;;;9.62;44.63
76660;BME280;65579;45.534;6.212;2023-03-19T06:18:21;98320.42;;;9.87;43.93
76660;BME280;65579;45.534;6.212;2023-03-19T06:20:47;98321.78;;;9.03;45.36
76660;BME280;65579;45.534;6.212;2023-03-19T06:23:11;98323.38;;;9.03;45.85
76660;BME280;65579;45.534;6.212;2023-03-19T06:25:37;98329.99;;;9.68;44.99
76660;BME280;65579;45.534;6.212;2023-03-19T06:28:03;98331.12;;;9.25;45.79
76660;BME280;65579;45.534;6.212;2023-03-19T06:30:28;98332.97;;;8.01;48.26
76660;BME280;65579;45.534;6.212;2023-03-19T06:32:54;98333.62;;;8.06;47.88
76660;BME280;65579;45.534;6.212;2023-03-19T06:35:20;98330.71;;;9.34;45.44
76660;BME280;65579;45.534;6.212;2023-03-19T06:37:45;98335.16;;;9.07;45.36
76660;BME280;65579;45.534;6.212;2023-03-19T06:40:11;98341.73;;;9.37;44.71
76660;BME280;65579;45.534;6.212;2023-03-19T06:42:36;98346.82;;;9.72;45.26
76660;BME280;65579;45.534;6.212;2023-03-19T06:45:02;98349.27;;;9.41;46.71
76660;BME280;65579;45.534;6.212;2023-03-19T06:47:27;98350.18;;;9.00;47.40
76660;BME280;65579;45.534;6.212;2023-03-19T06:49:52;98352.42;;;9.24;46.36
76660;BME280;65579;45.534;6.212;2023-03-19T06:52:18;98357.05;;;9.75;45.48
76660;BME280;65579;45.534;6.212;2023-03-19T06:54:43;98357.79;;;10.56;44.72
76660;BME280;65579;45.534;6.212;2023-03-19T06:57:08;98359.49;;;10.64;43.74
76660;BME280;65579;45.534;6.212;2023-03-19T06:59:34;98363.05;;;10.53;44.14
76660;BME280;65579;45.534;6.212;2023-03-19T07:01:59;98366.34;;;10.11;44.36
76660;BME280;65579;45.534;6.212;2023-03-19T07:04:25;98369.37;;;9.26;45.79
76660;BME280;65579;45.534;6.212;2023-03-19T07:06:51;98374.39;;;10.11;43.37
76660;BME280;65579;45.534;6.212;2023-03-19T07:09:16;98375.06;;;10.35;43.26
76660;BME280;65579;45.534;6.212;2023-03-19T07:11:42;98379.06;;;10.48;43.38
76660;BME280;65579;45.534;6.212;2023-03-19T07:14:07;98374.70;;;11.40;42.17
76660;BME280;65579;45.534;6.212;2023-03-19T07:16:32;98384.60;;;10.45;43.08
76660;BME280;65579;45.534;6.212;2023-03-19T07:18:57;98389.09;;;10.75;42.95
76660;BME280;65579;45.534;6.212;2023-03-19T07:21:23;98393.44;;;10.51;41.80
76660;BME280;65579;45.534;6.212;2023-03-19T07:23:48;98399.12;;;10.45;41.28
76660;BME280;65579;45.534;6.212;2023-03-19T07:26:13;98401.37;;;10.40;42.03
76660;BME280;65579;45.534;6.212;2023-03-19T07:28:39;98404.44;;;10.85;41.49
76660;BME280;65579;45.534;6.212;2023-03-19T07:31:04;98407.76;;;10.81;40.59
76660;BME280;65579;45.534;6.212;2023-03-19T07:33:29;98409.47;;;11.39;39.91
76660;BME280;65579;45.534;6.212;2023-03-19T07:35:54;98415.13;;;10.68;42.38
76660;BME280;65579;45.534;6.212;2023-03-19T07:38:20;98419.29;;;11.27;42.13
76660;BME280;65579;45.534;6.212;2023-03-19T07:40:45;98425.16;;;10.75;42.35
76660;BME280;65579;45.534;6.212;2023-03-19T07:43:10;98425.91;;;10.97;42.87
76660;BME280;65579;45.534;6.212;2023-03-19T07:45:35;98427.71;;;10.91;42.71
76660;BME280;65579;45.534;6.212;2023-03-19T07:48:02;98423.88;;;11.32;41.09
76660;BME280;65579;45.534;6.212;2023-03-19T07:50:26;98432.37;;;10.64;42.86
76660;BME280;65579;45.534;6.212;2023-03-19T07:52:51;98436.41;;;11.09;41.69
76660;BME280;65579;45.534;6.212;2023-03-19T07:55:17;98432.77;;;11.75;40.93
76660;BME280;65579;45.534;6.212;2023-03-19T07:57:42;98434.96;;;11.65;41.83
76660;BME280;65579;45.534;6.212;2023-03-19T08:00:09;98439.40;;;11.30;41.75
76660;BME280;65579;45.534;6.212;2023-03-19T08:02:33;98435.85;;;11.68;41.06
76660;BME280;65579;45.534;6.212;2023-03-19T08:04:58;98439.47;;;11.93;41.51
76660;BME280;65579;45.534;6.212;2023-03-19T08:07:23;98441.80;;;11.78;40.97
76660;BME280;65579;45.534;6.212;2023-03-19T08:09:48;98442.42;;;11.58;41.99
76660;BME280;65579;45.534;6.212;2023-03-19T08:12:14;98448.15;;;11.39;42.24
76660;BME280;65579;45.534;6.212;2023-03-19T08:14:39;98455.73;;;11.41;42.06
76660;BME280;65579;45.534;6.212;2023-03-19T08:17:05;98458.95;;;11.31;42.08
76660;BME280;65579;45.534;6.212;2023-03-19T08:19:33;98461.31;;;10.84;42.75
76660;BME280;65579;45.534;6.212;2023-03-19T08:21:59;98461.59;;;11.15;42.08
76660;BME280;65579;45.534;6.212;2023-03-19T08:24:26;98461.81;;;10.83;42.54
76660;BME280;65579;45.534;6.212;2023-03-19T08:26:53;98464.99;;;11.15;43.05
76660;BME280;65579;45.534;6.212;2023-03-19T08:29:16;98464.02;;;12.35;41.78
76660;BME280;65579;45.534;6.212;2023-03-19T08:31:42;98468.19;;;12.26;42.24
76660;BME280;65579;45.534;6.212;2023-03-19T08:34:08;98467.12;;;11.83;42.98
76660;BME280;65579;45.534;6.212;2023-03-19T08:36:35;98473.55;;;11.52;43.53
76660;BME280;65579;45.534;6.212;2023-03-19T08:38:57;98479.37;;;11.10;44.57
76660;BME280;65579;45.534;6.212;2023-03-19T08:41:23;98477.22;;;11.60;45.24
76660;BME280;65579;45.534;6.212;2023-03-19T08:43:49;98478.85;;;11.95;44.66
76660;BME280;65579;45.534;6.212;2023-03-19T08:46:15;98478.58;;;11.94;44.90
76660;BME280;65579;45.534;6.212;2023-03-19T08:48:40;98480.38;;;12.52;43.57
76660;BME280;65579;45.534;6.212;2023-03-19T08:51:04;98484.97;;;12.21;44.97
76660;BME280;65579;45.534;6.212;2023-03-19T08:53:30;98486.16;;;12.13;43.25
76660;BME280;65579;45.534;6.212;2023-03-19T08:55:58;98492.37;;;11.60;45.41
76660;BME280;65579;45.534;6.212;2023-03-19T08:58:21;98498.09;;;11.58;45.61
76660;BME280;65579;45.534;6.212;2023-03-19T09:00:46;98493.90;;;11.95;43.44
76660;BME280;65579;45.534;6.212;2023-03-19T09:03:10;98499.71;;;11.05;46.06
76660;BME280;65579;45.534;6.212;2023-03-19T09:05:37;98502.38;;;11.81;45.28
76660;BME280;65579;45.534;6.212;2023-03-19T09:08:02;98497.60;;;12.16;42.75
76660;BME280;65579;45.534;6.212;2023-03-19T09:10:27;98502.37;;;11.66;44.38
76660;BME280;65579;45.534;6.212;2023-03-19T09:12:51;98501.27;;;12.17;45.32
76660;BME280;65579;45.534;6.212;2023-03-19T09:15:19;98505.94;;;11.87;45.06
76660;BME280;65579;45.534;6.212;2023-03-19T09:17:43;98515.60;;;11.58;45.29
76660;BME280;65579;45.534;6.212;2023-03-19T09:20:10;98513.61;;;12.58;45.19
76660;BME280;65579;45.534;6.212;2023-03-19T09:22:33;98514.79;;;12.84;46.75
76660;BME280;65579;45.534;6.212;2023-03-19T09:24:56;98516.20;;;12.96;45.22
76660;BME280;65579;45.534;6.212;2023-03-19T09:27:24;98517.76;;;12.47;45.27
76660;BME280;65579;45.534;6.212;2023-03-19T09:29:50;98516.26;;;12.12;46.46
76660;BME280;65579;45.534;6.212;2023-03-19T09:32:14;98519.15;;;12.87;45.31
76660;BME280;65579;45.534;6.212;2023-03-19T09:34:42;98519.07;;;12.80;45.43
76660;BME280;65579;45.534;6.212;2023-03-19T09:37:06;98522.03;;;13.13;45.16
76660;BME280;65579;45.534;6.212;2023-03-19T09:39:32;98524.37;;;13.48;45.00
76660;BME280;65579;45.534;6.212;2023-03-19T09:42:06;98525.80;;;13.12;44.08
76660;BME280;65579;45.534;6.212;2023-03-19T09:44:28;98525.41;;;12.90;44.60
76660;BME280;65579;45.534;6.212;2023-03-19T09:46:55;98521.81;;;13.02;45.00
76660;BME280;65579;45.534;6.212;2023-03-19T09:49:21;98517.89;;;12.99;42.80
76660;BME280;65579;45.534;6.212;2023-03-19T09:51:43;98517.87;;;13.15;43.53
76660;BME280;65579;45.534;6.212;2023-03-19T09:54:11;98516.83;;;12.70;43.60
76660;BME280;65579;45.534;6.212;2023-03-19T09:56:31;98516.49;;;13.33;41.57
76660;BME280;65579;45.534;6.212;2023-03-19T09:58:57;98513.73;;;12.32;43.90
76660;BME280;65579;45.534;6.212;2023-03-19T10:01:26;98509.49;;;12.62;41.88
76660;BME280;65579;45.534;6.212;2023-03-19T10:06:24;98505.60;;;13.22;45.01
76660;BME280;65579;45.534;6.212;2023-03-19T10:11:16;98508.41;;;13.33;43.48
76660;BME280;65579;45.534;6.212;2023-03-19T10:13:40;98506.77;;;13.64;42.34
76660;BME280;65579;45.534;6.212;2023-03-19T10:15:56;98505.93;;;13.26;42.49
76660;BME280;65579;45.534;6.212;2023-03-19T10:18:22;98504.23;;;12.93;43.08
76660;BME280;65579;45.534;6.212;2023-03-19T10:20:50;98503.62;;;12.78;42.64
76660;BME280;65579;45.534;6.212;2023-03-19T10:23:25;98500.24;;;12.90;43.00
76660;BME280;65579;45.534;6.212;2023-03-19T10:25:38;98498.10;;;13.74;43.33
76660;BME280;65579;45.534;6.212;2023-03-19T10:28:10;98501.63;;;13.35;42.81
76660;BME280;65579;45.534;6.212;2023-03-19T10:30:28;98500.54;;;13.37;42.42
76660;BME280;65579;45.534;6.212;2023-03-19T10:32:57;98500.38;;;13.26;42.57
76660;BME280;65579;45.534;6.212;2023-03-19T10:35:22;98501.68;;;12.54;43.97
76660;BME280;65579;45.534;6.212;2023-03-19T10:37:42;98498.99;;;13.40;42.52
76660;BME280;65579;45.534;6.212;2023-03-19T10:40:18;98502.92;;;13.10;42.35
76660;BME280;65579;45.534;6.212;2023-03-19T10:42:40;98502.98;;;12.90;44.16
76660;BME280;65579;45.534;6.212;2023-03-19T10:45:02;98500.27;;;13.38;42.70
76660;BME280;65579;45.534;6.212;2023-03-19T10:47:26;98501.63;;;12.60;42.07
76660;BME280;65579;45.534;6.212;2023-03-19T10:49:50;98503.56;;;12.83;40.62
76660;BME280;65579;45.534;6.212;2023-03-19T10:52:21;98505.37;;;12.92;40.25
76660;BME280;65579;45.534;6.212;2023-03-19T10:54:43;98501.62;;;13.46;39.67
76660;BME280;65579;45.534;6.212;2023-03-19T10:57:18;98502.40;;;12.89;41.00
76660;BME280;65579;45.534;6.212;2023-03-19T10:59:35;98502.28;;;12.71;42.07
76660;BME280;65579;45.534;6.212;2023-03-19T11:02:01;98500.64;;;13.04;41.71
76660;BME280;65579;45.534;6.212;2023-03-19T11:04:24;98498.27;;;13.37;42.22
76660;BME280;65579;45.534;6.212;2023-03-19T11:06:50;98497.38;;;13.16;41.38
76660;BME280;65579;45.534;6.212;2023-03-19T11:09:18;98493.13;;;13.20;41.35
76660;BME280;65579;45.534;6.212;2023-03-19T11:11:43;98492.07;;;13.35;40.95
76660;BME280;65579;45.534;6.212;2023-03-19T11:14:14;98495.05;;;13.32;41.61
76660;BME280;65579;45.534;6.212;2023-03-19T11:16:30;98497.28;;;13.05;40.40
76660;BME280;65579;45.534;6.212;2023-03-19T11:18:55;98492.34;;;13.34;40.35
76660;BME280;65579;45.534;6.212;2023-03-19T11:21:29;98489.12;;;14.14;38.76
76660;BME280;65579;45.534;6.212;2023-03-19T11:23:45;98485.73;;;14.10;39.55
76660;BME280;65579;45.534;6.212;2023-03-19T11:26:10;98482.94;;;14.32;40.28
76660;BME280;65579;45.534;6.212;2023-03-19T11:28:37;98483.05;;;14.34;39.68
76660;BME280;65579;45.534;6.212;2023-03-19T11:31:04;98484.31;;;13.73;41.90
76660;BME280;65579;45.534;6.212;2023-03-19T11:35:57;98484.09;;;13.34;42.19
76660;BME280;65579;45.534;6.212;2023-03-19T11:38:21;98483.50;;;13.51;42.68
76660;BME280;65579;45.534;6.212;2023-03-19T11:40:46;98482.89;;;13.05;43.83
76660;BME280;65579;45.534;6.212;2023-03-19T11:45:38;98481.04;;;13.08;42.88
76660;BME280;65579;45.534;6.212;2023-03-19T11:50:32;98476.87;;;13.57;43.07
76660;BME280;65579;45.534;6.212;2023-03-19T11:53:00;98474.02;;;13.70;43.26
76660;BME280;65579;45.534;6.212;2023-03-19T11:55:20;98471.48;;;13.68;43.50
76660;BME280;65579;45.534;6.212;2023-03-19T11:57:54;98465.08;;;14.04;43.65
76660;BME280;65579;45.534;6.212;2023-03-19T12:00:12;98462.89;;;14.11;42.00
76660;BME280;65579;45.534;6.212;2023-03-19T12:02:46;98456.63;;;13.99;40.97
76660;BME280;65579;45.534;6.212;2023-03-19T12:05:08;98455.64;;;13.81;42.15
76660;BME280;65579;45.534;6.212;2023-03-19T12:07:29;98458.04;;;13.23;43.83
76660;BME280;65579;45.534;6.212;2023-03-19T12:09:54;98459.53;;;13.02;43.49
76660;BME280;65579;45.534;6.212;2023-03-19T12:12:18;98459.34;;;12.34;45.73
76660;BME280;65579;45.534;6.212;2023-03-19T12:14:45;98457.37;;;12.63;43.78
76660;BME280;65579;45.534;6.212;2023-03-19T12:17:19;98457.05;;;13.46;42.78
76660;BME280;65579;45.534;6.212;2023-03-19T12:19:43;98456.03;;;12.77;44.31
76660;BME280;65579;45.534;6.212;2023-03-19T12:22:01;98453.14;;;13.14;44.15
76660;BME280;65579;45.534;6.212;2023-03-19T12:24:24;98449.26;;;12.55;43.78
76660;BME280;65579;45.534;6.212;2023-03-19T12:26:53;98443.25;;;12.34;45.94
76660;BME280;65579;45.534;6.212;2023-03-19T12:29:17;98442.33;;;12.89;44.26
76660;BME280;65579;45.534;6.212;2023-03-19T12:31:47;98439.78;;;12.66;45.13
76660;BME280;65579;45.534;6.212;2023-03-19T12:34:14;98442.73;;;12.75;43.65
76660;BME280;65579;45.534;6.212;2023-03-19T12:36:34;98444.19;;;12.78;43.76
76660;BME280;65579;45.534;6.212;2023-03-19T12:38:56;98446.51;;;12.28;45.33
76660;BME280;65579;45.534;6.212;2023-03-19T12:41:22;98447.50;;;12.18;45.29
76660;BME280;65579;45.534;6.212;2023-03-19T12:43:51;98444.89;;;11.88;44.85
76660;BME280;65579;45.534;6.212;2023-03-19T12:46:10;98441.44;;;11.98;45.22
76660;BME280;65579;45.534;6.212;2023-03-19T12:48:39;98438.95;;;12.11;44.23
76660;BME280;65579;45.534;6.212;2023-03-19T12:51:07;98436.63;;;13.52;41.67
76660;BME280;65579;45.534;6.212;2023-03-19T12:53:34;98437.80;;;13.21;42.45
76660;BME280;65579;45.534;6.212;2023-03-19T12:55:54;98436.78;;;13.57;41.75
76660;BME280;65579;45.534;6.212;2023-03-19T12:58:19;98433.12;;;13.11;43.26
76660;BME280;65579;45.534;6.212;2023-03-19T13:00:57;98431.68;;;13.27;43.16
76660;BME280;65579;45.534;6.212;2023-03-19T13:03:10;98426.25;;;13.41;42.10
76660;BME280;65579;45.534;6.212;2023-03-19T13:05:37;98428.27;;;13.05;42.13